sensor_id;sensor_type;location;lat;lon;timestamp;temperature;humidity
67101;DHT22;54019;61.746;16.106;2022-11-06T00:02:12;20.50;35.70
67101;DHT22;54019;61.746;16.106;2022-11-06T00:04:37;20.50;35.80
67101;DHT22;54019;61.746;16.106;2022-11-06T00:07:03;20.50;35.70
67101;DHT22;54019;61.746;16.106;2022-11-06T00:09:29;20.50;35.80
67101;DHT22;54019;61.746;16.106;2022-11-06T00:11:55;20.50;35.80
67101;DHT22;54019;61.746;16.106;2022-11-06T00:14:20;20.50;35.80
67101;DHT22;54019;61.746;16.106;2022-11-06T00:16:48;20.40;35.60
67101;DHT22;54019;61.746;16.106;2022-11-06T00:19:14;20.40;35.70
67101;DHT22;54019;61.746;16.106;2022-11-06T00:21:40;20.40;35.70
67101;DHT22;54019;61.746;16.106;2022-11-06T00:24:07;20.40;35.70
67101;DHT22;54019;61.746;16.106;2022-11-06T00:26:33;20.40;35.70
67101;DHT22;54019;61.746;16.106;2022-11-06T00:29:00;20.40;35.90
67101;DHT22;54019;61.746;16.106;2022-11-06T00:31:27;20.30;35.90
67101;DHT22;54019;61.746;16.106;2022-11-06T00:33:56;20.40;35.80
67101;DHT22;54019;61.746;16.106;2022-11-06T00:36:23;20.40;35.80
67101;DHT22;54019;61.746;16.106;2022-11-06T00:38:50;20.40;35.80
67101;DHT22;54019;61.746;16.106;2022-11-06T00:41:16;20.40;35.70
67101;DHT22;54019;61.746;16.106;2022-11-06T00:43:47;20.40;35.70
67101;DHT22;54019;61.746;16.106;2022-11-06T00:46:13;20.40;35.70
67101;DHT22;54019;61.746;16.106;2022-11-06T00:48:39;20.40;35.70
67101;DHT22;54019;61.746;16.106;2022-11-06T00:51:09;20.40;35.70
67101;DHT22;54019;61.746;16.106;2022-11-06T00:53:35;20.40;35.70
67101;DHT22;54019;61.746;16.106;2022-11-06T00:56:05;20.40;35.70
67101;DHT22;54019;61.746;16.106;2022-11-06T00:58:31;20.40;35.60
67101;DHT22;54019;61.746;16.106;2022-11-06T01:01:05;20.40;35.60
67101;DHT22;54019;61.746;16.106;2022-11-06T01:03:31;20.40;35.80
67101;DHT22;54019;61.746;16.106;2022-11-06T01:06:03;20.40;35.80
67101;DHT22;54019;61.746;16.106;2022-11-06T01:08:30;20.40;35.90
67101;DHT22;54019;61.746;16.106;2022-11-06T01:10:56;20.30;36.00
67101;DHT22;54019;61.746;16.106;2022-11-06T01:13:22;20.30;35.80
67101;DHT22;54019;61.746;16.106;2022-11-06T01:15:48;20.30;36.00
67101;DHT22;54019;61.746;16.106;2022-11-06T01:18:14;20.30;35.90
67101;DHT22;54019;61.746;16.106;2022-11-06T01:20:40;20.30;35.90
67101;DHT22;54019;61.746;16.106;2022-11-06T01:23:05;20.30;36.00
67101;DHT22;54019;61.746;16.106;2022-11-06T01:25:32;20.30;35.90
67101;DHT22;54019;61.746;16.106;2022-11-06T01:27:58;20.30;36.00
67101;DHT22;54019;61.746;16.106;2022-11-06T01:30:24;20.30;36.00
67101;DHT22;54019;61.746;16.106;2022-11-06T01:32:50;20.30;35.90
67101;DHT22;54019;61.746;16.106;2022-11-06T01:35:16;20.30;35.90
67101;DHT22;54019;61.746;16.106;2022-11-06T01:37:41;20.40;35.80
67101;DHT22;54019;61.746;16.106;2022-11-06T01:40:08;20.40;35.80
67101;DHT22;54019;61.746;16.106;2022-11-06T01:42:35;20.30;35.80
67101;DHT22;54019;61.746;16.106;2022-11-06T01:45:17;20.30;35.90
67101;DHT22;54019;61.746;16.106;2022-11-06T01:47:44;20.30;35.80
67101;DHT22;54019;61.746;16.106;2022-11-06T01:50:11;20.30;36.00
67101;DHT22;54019;61.746;16.106;2022-11-06T01:52:39;20.30;36.00
67101;DHT22;54019;61.746;16.106;2022-11-06T01:55:09;20.30;35.90
67101;DHT22;54019;61.746;16.106;2022-11-06T01:57:38;20.30;36.00
67101;DHT22;54019;61.746;16.106;2022-11-06T02:00:05;20.30;36.00
67101;DHT22;54019;61.746;16.106;2022-11-06T02:02:32;20.30;36.00
67101;DHT22;54019;61.746;16.106;2022-11-06T02:04:57;20.30;35.90
67101;DHT22;54019;61.746;16.106;2022-11-06T02:07:23;20.20;35.80
67101;DHT22;54019;61.746;16.106;2022-11-06T02:09:49;20.30;36.00
67101;DHT22;54019;61.746;16.106;2022-11-06T02:12:23;20.20;35.90
67101;DHT22;54019;61.746;16.106;2022-11-06T02:15:00;20.30;36.00
67101;DHT22;54019;61.746;16.106;2022-11-06T02:17:35;20.30;36.00
67101;DHT22;54019;61.746;16.106;2022-11-06T02:20:06;20.30;36.00
67101;DHT22;54019;61.746;16.106;2022-11-06T02:22:57;20.30;36.00
67101;DHT22;54019;61.746;16.106;2022-11-06T02:25:34;20.30;36.10
67101;DHT22;54019;61.746;16.106;2022-11-06T02:28:09;20.30;36.60
67101;DHT22;54019;61.746;16.106;2022-11-06T02:30:40;20.30;35.90
67101;DHT22;54019;61.746;16.106;2022-11-06T02:33:09;20.30;35.90
67101;DHT22;54019;61.746;16.106;2022-11-06T02:35:41;20.30;36.00
67101;DHT22;54019;61.746;16.106;2022-11-06T02:38:11;20.30;35.90
67101;DHT22;54019;61.746;16.106;2022-11-06T02:40:51;20.30;36.00
67101;DHT22;54019;61.746;16.106;2022-11-06T02:43:22;20.30;36.10
67101;DHT22;54019;61.746;16.106;2022-11-06T02:45:55;20.20;36.00
67101;DHT22;54019;61.746;16.106;2022-11-06T02:48:25;20.20;36.00
67101;DHT22;54019;61.746;16.106;2022-11-06T02:50:53;20.20;36.00
67101;DHT22;54019;61.746;16.106;2022-11-06T02:53:23;20.30;36.00
67101;DHT22;54019;61.746;16.106;2022-11-06T02:55:52;20.20;35.90
67101;DHT22;54019;61.746;16.106;2022-11-06T02:58:24;20.20;35.90
67101;DHT22;54019;61.746;16.106;2022-11-06T03:00:58;20.20;35.90
67101;DHT22;54019;61.746;16.106;2022-11-06T03:03:27;20.20;36.10
67101;DHT22;54019;61.746;16.106;2022-11-06T03:05:56;20.30;36.00
67101;DHT22;54019;61.746;16.106;2022-11-06T03:08:26;20.30;36.00
67101;DHT22;54019;61.746;16.106;2022-11-06T03:11:00;20.30;36.00
67101;DHT22;54019;61.746;16.106;2022-11-06T03:13:39;20.30;36.00
67101;DHT22;54019;61.746;16.106;2022-11-06T03:16:17;20.20;35.90
67101;DHT22;54019;61.746;16.106;2022-11-06T03:18:57;20.20;35.90
67101;DHT22;54019;61.746;16.106;2022-11-06T03:21:28;20.20;35.90
67101;DHT22;54019;61.746;16.106;2022-11-06T03:23:57;20.20;36.00
67101;DHT22;54019;61.746;16.106;2022-11-06T03:26:32;20.20;36.20
67101;DHT22;54019;61.746;16.106;2022-11-06T03:29:07;20.20;36.00
67101;DHT22;54019;61.746;16.106;2022-11-06T03:31:39;20.20;36.00
67101;DHT22;54019;61.746;16.106;2022-11-06T03:34:11;20.20;36.00
67101;DHT22;54019;61.746;16.106;2022-11-06T03:36:41;20.20;36.10
67101;DHT22;54019;61.746;16.106;2022-11-06T03:39:11;20.20;36.70
67101;DHT22;54019;61.746;16.106;2022-11-06T03:41:43;20.20;36.20
67101;DHT22;54019;61.746;16.106;2022-11-06T03:44:14;20.20;36.20
67101;DHT22;54019;61.746;16.106;2022-11-06T03:46:44;20.20;36.10
67101;DHT22;54019;61.746;16.106;2022-11-06T03:49:14;20.20;36.10
67101;DHT22;54019;61.746;16.106;2022-11-06T03:51:44;20.20;36.10
67101;DHT22;54019;61.746;16.106;2022-11-06T03:54:16;20.20;36.00
67101;DHT22;54019;61.746;16.106;2022-11-06T03:56:47;20.20;36.00
67101;DHT22;54019;61.746;16.106;2022-11-06T03:59:17;20.20;36.00
67101;DHT22;54019;61.746;16.106;2022-11-06T04:01:44;20.20;35.90
67101;DHT22;54019;61.746;16.106;2022-11-06T04:04:14;20.20;36.10
67101;DHT22;54019;61.746;16.106;2022-11-06T04:06:46;20.20;36.10
67101;DHT22;54019;61.746;16.106;2022-11-06T04:09:14;20.20;36.10
67101;DHT22;54019;61.746;16.106;2022-11-06T04:11:41;20.20;36.10
67101;DHT22;54019;61.746;16.106;2022-11-06T04:14:08;20.20;36.10
67101;DHT22;54019;61.746;16.106;2022-11-06T04:16:39;20.20;36.10
67101;DHT22;54019;61.746;16.106;2022-11-06T04:19:08;20.20;36.10
67101;DHT22;54019;61.746;16.106;2022-11-06T04:21:47;20.20;36.00
67101;DHT22;54019;61.746;16.106;2022-11-06T04:24:23;20.20;36.20
67101;DHT22;54019;61.746;16.106;2022-11-06T04:27:05;20.20;36.30
67101;DHT22;54019;61.746;16.106;2022-11-06T04:29:46;20.20;36.20
67101;DHT22;54019;61.746;16.106;2022-11-06T04:32:20;20.20;36.20
67101;DHT22;54019;61.746;16.106;2022-11-06T04:34:52;20.20;36.10
67101;DHT22;54019;61.746;16.106;2022-11-06T04:37:22;20.20;36.20
67101;DHT22;54019;61.746;16.106;2022-11-06T04:39:54;20.20;36.10
67101;DHT22;54019;61.746;16.106;2022-11-06T04:42:26;20.20;35.90
67101;DHT22;54019;61.746;16.106;2022-11-06T04:44:57;20.20;35.90
67101;DHT22;54019;61.746;16.106;2022-11-06T04:47:27;20.30;36.00
67101;DHT22;54019;61.746;16.106;2022-11-06T04:49:56;20.20;36.00
67101;DHT22;54019;61.746;16.106;2022-11-06T04:52:25;20.20;35.90
67101;DHT22;54019;61.746;16.106;2022-11-06T04:54:52;20.20;35.90
67101;DHT22;54019;61.746;16.106;2022-11-06T04:57:18;20.20;36.60
67101;DHT22;54019;61.746;16.106;2022-11-06T04:59:44;20.20;36.00
67101;DHT22;54019;61.746;16.106;2022-11-06T05:02:10;20.20;36.00
67101;DHT22;54019;61.746;16.106;2022-11-06T05:04:37;20.20;36.00
67101;DHT22;54019;61.746;16.106;2022-11-06T05:07:03;20.20;36.00
67101;DHT22;54019;61.746;16.106;2022-11-06T05:09:29;20.20;36.00
67101;DHT22;54019;61.746;16.106;2022-11-06T05:11:54;20.20;36.00
67101;DHT22;54019;61.746;16.106;2022-11-06T05:14:20;20.30;35.80
67101;DHT22;54019;61.746;16.106;2022-11-06T05:16:46;20.40;35.60
67101;DHT22;54019;61.746;16.106;2022-11-06T05:19:12;20.40;35.40
67101;DHT22;54019;61.746;16.106;2022-11-06T05:21:39;20.50;35.30
67101;DHT22;54019;61.746;16.106;2022-11-06T05:24:06;20.60;35.20
67101;DHT22;54019;61.746;16.106;2022-11-06T05:26:32;20.50;35.00
67101;DHT22;54019;61.746;16.106;2022-11-06T05:28:57;20.60;35.00
67101;DHT22;54019;61.746;16.106;2022-11-06T05:31:23;20.60;35.00
67101;DHT22;54019;61.746;16.106;2022-11-06T05:33:50;20.60;34.90
67101;DHT22;54019;61.746;16.106;2022-11-06T05:36:15;20.60;35.00
67101;DHT22;54019;61.746;16.106;2022-11-06T05:38:43;20.60;34.90
67101;DHT22;54019;61.746;16.106;2022-11-06T05:41:08;20.50;34.90
67101;DHT22;54019;61.746;16.106;2022-11-06T05:43:34;20.50;35.00
67101;DHT22;54019;61.746;16.106;2022-11-06T05:46:00;20.50;35.20
67101;DHT22;54019;61.746;16.106;2022-11-06T05:48:26;20.40;35.40
67101;DHT22;54019;61.746;16.106;2022-11-06T05:50:52;20.40;35.60
67101;DHT22;54019;61.746;16.106;2022-11-06T05:53:17;20.40;35.50
67101;DHT22;54019;61.746;16.106;2022-11-06T05:55:46;20.40;35.40
67101;DHT22;54019;61.746;16.106;2022-11-06T05:58:12;20.40;35.30
67101;DHT22;54019;61.746;16.106;2022-11-06T06:00:37;20.50;35.10
67101;DHT22;54019;61.746;16.106;2022-11-06T06:03:03;20.60;35.00
67101;DHT22;54019;61.746;16.106;2022-11-06T06:05:29;20.60;34.80
67101;DHT22;54019;61.746;16.106;2022-11-06T06:07:55;20.70;34.80
67101;DHT22;54019;61.746;16.106;2022-11-06T06:10:20;20.70;34.70
67101;DHT22;54019;61.746;16.106;2022-11-06T06:12:49;20.70;34.60
67101;DHT22;54019;61.746;16.106;2022-11-06T06:15:15;20.70;34.60
67101;DHT22;54019;61.746;16.106;2022-11-06T06:17:41;20.70;34.60
67101;DHT22;54019;61.746;16.106;2022-11-06T06:20:08;20.70;34.60
67101;DHT22;54019;61.746;16.106;2022-11-06T06:22:34;20.70;34.60
67101;DHT22;54019;61.746;16.106;2022-11-06T06:25:00;20.60;34.60
67101;DHT22;54019;61.746;16.106;2022-11-06T06:27:29;20.60;34.70
67101;DHT22;54019;61.746;16.106;2022-11-06T06:29:59;20.50;34.90
67101;DHT22;54019;61.746;16.106;2022-11-06T06:32:25;20.50;35.00
67101;DHT22;54019;61.746;16.106;2022-11-06T06:34:51;20.50;35.10
67101;DHT22;54019;61.746;16.106;2022-11-06T06:37:16;20.50;35.00
67101;DHT22;54019;61.746;16.106;2022-11-06T06:39:42;20.50;34.90
67101;DHT22;54019;61.746;16.106;2022-11-06T06:42:08;20.60;34.70
67101;DHT22;54019;61.746;16.106;2022-11-06T06:44:34;20.70;34.70
67101;DHT22;54019;61.746;16.106;2022-11-06T06:47:01;20.70;34.50
67101;DHT22;54019;61.746;16.106;2022-11-06T06:49:27;20.70;34.40
67101;DHT22;54019;61.746;16.106;2022-11-06T06:51:53;20.80;34.20
67101;DHT22;54019;61.746;16.106;2022-11-06T06:54:18;20.80;34.10
67101;DHT22;54019;61.746;16.106;2022-11-06T06:56:44;20.80;34.20
67101;DHT22;54019;61.746;16.106;2022-11-06T06:59:12;20.80;34.20
67101;DHT22;54019;61.746;16.106;2022-11-06T07:01:37;20.80;34.10
67101;DHT22;54019;61.746;16.106;2022-11-06T07:04:05;20.80;34.30
67101;DHT22;54019;61.746;16.106;2022-11-06T07:06:31;20.70;34.30
67101;DHT22;54019;61.746;16.106;2022-11-06T07:08:57;20.70;34.40
67101;DHT22;54019;61.746;16.106;2022-11-06T07:11:23;20.70;34.40
67101;DHT22;54019;61.746;16.106;2022-11-06T07:13:49;20.60;34.40
67101;DHT22;54019;61.746;16.106;2022-11-06T07:16:14;20.60;34.50
67101;DHT22;54019;61.746;16.106;2022-11-06T07:18:40;20.60;34.50
67101;DHT22;54019;61.746;16.106;2022-11-06T07:21:09;20.60;34.50
67101;DHT22;54019;61.746;16.106;2022-11-06T07:23:36;20.70;34.50
67101;DHT22;54019;61.746;16.106;2022-11-06T07:26:03;20.80;34.30
67101;DHT22;54019;61.746;16.106;2022-11-06T07:28:29;20.80;34.20
67101;DHT22;54019;61.746;16.106;2022-11-06T07:30:57;20.90;34.20
67101;DHT22;54019;61.746;16.106;2022-11-06T07:33:23;20.90;34.00
67101;DHT22;54019;61.746;16.106;2022-11-06T07:35:49;20.90;34.00
67101;DHT22;54019;61.746;16.106;2022-11-06T07:38:16;20.90;33.90
67101;DHT22;54019;61.746;16.106;2022-11-06T07:40:42;20.90;34.00
67101;DHT22;54019;61.746;16.106;2022-11-06T07:43:09;20.90;34.00
67101;DHT22;54019;61.746;16.106;2022-11-06T07:45:36;20.90;34.00
67101;DHT22;54019;61.746;16.106;2022-11-06T07:48:02;20.80;33.90
67101;DHT22;54019;61.746;16.106;2022-11-06T07:50:29;20.90;33.90
67101;DHT22;54019;61.746;16.106;2022-11-06T07:52:55;20.90;33.80
67101;DHT22;54019;61.746;16.106;2022-11-06T07:55:22;20.90;33.80
67101;DHT22;54019;61.746;16.106;2022-11-06T07:57:48;20.90;33.70
67101;DHT22;54019;61.746;16.106;2022-11-06T08:00:14;20.90;33.60
67101;DHT22;54019;61.746;16.106;2022-11-06T08:02:40;20.90;33.60
67101;DHT22;54019;61.746;16.106;2022-11-06T08:05:07;21.00;33.50
67101;DHT22;54019;61.746;16.106;2022-11-06T08:07:32;21.00;33.50
67101;DHT22;54019;61.746;16.106;2022-11-06T08:09:58;21.10;33.50
67101;DHT22;54019;61.746;16.106;2022-11-06T08:12:25;21.20;33.30
67101;DHT22;54019;61.746;16.106;2022-11-06T08:14:51;21.30;33.20
67101;DHT22;54019;61.746;16.106;2022-11-06T08:17:17;21.30;33.00
67101;DHT22;54019;61.746;16.106;2022-11-06T08:19:43;21.30;33.00
67101;DHT22;54019;61.746;16.106;2022-11-06T08:22:08;21.30;33.00
67101;DHT22;54019;61.746;16.106;2022-11-06T08:24:35;21.30;33.10
67101;DHT22;54019;61.746;16.106;2022-11-06T08:27:00;21.30;33.00
67101;DHT22;54019;61.746;16.106;2022-11-06T08:29:28;21.30;33.00
67101;DHT22;54019;61.746;16.106;2022-11-06T08:31:53;21.20;33.00
67101;DHT22;54019;61.746;16.106;2022-11-06T08:34:19;21.20;33.00
67101;DHT22;54019;61.746;16.106;2022-11-06T08:36:45;21.30;33.20
67101;DHT22;54019;61.746;16.106;2022-11-06T08:39:11;21.20;33.30
67101;DHT22;54019;61.746;16.106;2022-11-06T08:41:37;21.20;33.30
67101;DHT22;54019;61.746;16.106;2022-11-06T08:44:03;21.20;33.30
67101;DHT22;54019;61.746;16.106;2022-11-06T08:46:31;21.30;33.40
67101;DHT22;54019;61.746;16.106;2022-11-06T08:48:57;21.40;33.80
67101;DHT22;54019;61.746;16.106;2022-11-06T08:51:23;21.40;33.10
67101;DHT22;54019;61.746;16.106;2022-11-06T08:53:49;21.50;33.00
67101;DHT22;54019;61.746;16.106;2022-11-06T08:56:15;21.50;33.20
67101;DHT22;54019;61.746;16.106;2022-11-06T08:58:40;21.60;33.10
67101;DHT22;54019;61.746;16.106;2022-11-06T09:01:06;21.60;33.30
67101;DHT22;54019;61.746;16.106;2022-11-06T09:03:33;21.50;33.50
67101;DHT22;54019;61.746;16.106;2022-11-06T09:05:59;21.50;33.70
67101;DHT22;54019;61.746;16.106;2022-11-06T09:08:25;21.40;34.00
67101;DHT22;54019;61.746;16.106;2022-11-06T09:10:51;21.50;34.10
67101;DHT22;54019;61.746;16.106;2022-11-06T09:13:17;21.40;34.00
67101;DHT22;54019;61.746;16.106;2022-11-06T09:15:43;21.30;34.00
67101;DHT22;54019;61.746;16.106;2022-11-06T09:18:09;21.30;34.00
67101;DHT22;54019;61.746;16.106;2022-11-06T09:20:37;21.30;33.90
67101;DHT22;54019;61.746;16.106;2022-11-06T09:23:07;21.40;33.90
67101;DHT22;54019;61.746;16.106;2022-11-06T09:25:33;21.40;33.80
67101;DHT22;54019;61.746;16.106;2022-11-06T09:27:59;21.40;33.70
67101;DHT22;54019;61.746;16.106;2022-11-06T09:30:26;21.50;33.60
67101;DHT22;54019;61.746;16.106;2022-11-06T09:32:53;21.50;33.50
67101;DHT22;54019;61.746;16.106;2022-11-06T09:35:21;21.50;33.50
67101;DHT22;54019;61.746;16.106;2022-11-06T09:37:49;21.60;33.40
67101;DHT22;54019;61.746;16.106;2022-11-06T09:40:19;21.50;33.30
67101;DHT22;54019;61.746;16.106;2022-11-06T10:21:47;21.60;33.30
67101;DHT22;54019;61.746;16.106;2022-11-06T10:24:22;21.60;33.30
67101;DHT22;54019;61.746;16.106;2022-11-06T10:26:51;21.50;33.40
67101;DHT22;54019;61.746;16.106;2022-11-06T14:54:30;21.40;33.90
67101;DHT22;54019;61.746;16.106;2022-11-06T14:56:58;21.40;33.90
67101;DHT22;54019;61.746;16.106;2022-11-06T14:59:30;21.40;34.00
67101;DHT22;54019;61.746;16.106;2022-11-06T15:02:00;21.40;34.00
67101;DHT22;54019;61.746;16.106;2022-11-06T15:04:27;21.40;34.00
67101;DHT22;54019;61.746;16.106;2022-11-06T15:07:06;21.40;34.00
67101;DHT22;54019;61.746;16.106;2022-11-06T15:09:46;21.30;34.30
67101;DHT22;54019;61.746;16.106;2022-11-06T15:12:12;21.30;34.50
67101;DHT22;54019;61.746;16.106;2022-11-06T15:14:58;21.20;34.50
67101;DHT22;54019;61.746;16.106;2022-11-06T15:17:29;21.20;34.60
67101;DHT22;54019;61.746;16.106;2022-11-06T15:20:07;21.20;34.50
67101;DHT22;54019;61.746;16.106;2022-11-06T15:22:40;21.20;34.50
67101;DHT22;54019;61.746;16.106;2022-11-06T15:25:19;21.10;34.50
67101;DHT22;54019;61.746;16.106;2022-11-06T15:27:51;21.10;34.50
67101;DHT22;54019;61.746;16.106;2022-11-06T15:30:19;21.20;34.50
67101;DHT22;54019;61.746;16.106;2022-11-06T15:32:46;21.20;34.30
67101;DHT22;54019;61.746;16.106;2022-11-06T15:35:15;21.30;34.20
67101;DHT22;54019;61.746;16.106;2022-11-06T15:37:44;21.30;34.10
67101;DHT22;54019;61.746;16.106;2022-11-06T15:40:24;21.30;34.10
67101;DHT22;54019;61.746;16.106;2022-11-06T15:42:50;21.40;34.00
67101;DHT22;54019;61.746;16.106;2022-11-06T15:45:21;21.40;34.00
67101;DHT22;54019;61.746;16.106;2022-11-06T15:47:57;21.30;34.00
67101;DHT22;54019;61.746;16.106;2022-11-06T15:50:26;21.30;34.00
67101;DHT22;54019;61.746;16.106;2022-11-06T15:52:52;21.30;34.00
67101;DHT22;54019;61.746;16.106;2022-11-06T15:55:28;21.20;34.00
67101;DHT22;54019;61.746;16.106;2022-11-06T15:58:04;21.20;34.10
67101;DHT22;54019;61.746;16.106;2022-11-06T16:00:33;21.20;34.10
67101;DHT22;54019;61.746;16.106;2022-11-06T16:03:01;21.20;34.10
67101;DHT22;54019;61.746;16.106;2022-11-06T16:05:29;21.20;34.10
67101;DHT22;54019;61.746;16.106;2022-11-06T16:07:56;21.10;34.20
67101;DHT22;54019;61.746;16.106;2022-11-06T16:10:25;21.10;34.20
67101;DHT22;54019;61.746;16.106;2022-11-06T16:12:52;21.10;34.30
67101;DHT22;54019;61.746;16.106;2022-11-06T16:15:46;21.10;34.40
67101;DHT22;54019;61.746;16.106;2022-11-06T16:18:15;21.10;34.20
67101;DHT22;54019;61.746;16.106;2022-11-06T16:20:42;21.20;34.10
67101;DHT22;54019;61.746;16.106;2022-11-06T16:23:11;21.20;33.90
67101;DHT22;54019;61.746;16.106;2022-11-06T16:25:40;21.30;33.90
67101;DHT22;54019;61.746;16.106;2022-11-06T16:28:13;21.30;33.80
67101;DHT22;54019;61.746;16.106;2022-11-06T16:30:40;21.30;33.70
67101;DHT22;54019;61.746;16.106;2022-11-06T16:33:19;21.30;33.80
67101;DHT22;54019;61.746;16.106;2022-11-06T16:35:45;21.30;33.90
67101;DHT22;54019;61.746;16.106;2022-11-06T16:38:35;21.30;34.00
67101;DHT22;54019;61.746;16.106;2022-11-06T16:41:02;21.30;34.10
67101;DHT22;54019;61.746;16.106;2022-11-06T16:43:28;21.20;34.10
67101;DHT22;54019;61.746;16.106;2022-11-06T16:45:56;21.20;34.20
67101;DHT22;54019;61.746;16.106;2022-11-06T16:48:30;21.20;34.60
67101;DHT22;54019;61.746;16.106;2022-11-06T16:50:58;21.10;34.90
67101;DHT22;54019;61.746;16.106;2022-11-06T16:53:26;21.10;36.10
67101;DHT22;54019;61.746;16.106;2022-11-06T16:55:54;21.10;37.10
67101;DHT22;54019;61.746;16.106;2022-11-06T16:58:23;21.10;37.60
67101;DHT22;54019;61.746;16.106;2022-11-06T17:00:55;21.10;42.00
67101;DHT22;54019;61.746;16.106;2022-11-06T17:03:22;21.10;43.70
67101;DHT22;54019;61.746;16.106;2022-11-06T17:05:54;21.10;41.70
67101;DHT22;54019;61.746;16.106;2022-11-06T17:08:22;21.10;42.10
67101;DHT22;54019;61.746;16.106;2022-11-06T17:10:48;21.10;41.40
67101;DHT22;54019;61.746;16.106;2022-11-06T17:13:16;21.10;41.50
67101;DHT22;54019;61.746;16.106;2022-11-06T17:15:46;21.10;41.30
67101;DHT22;54019;61.746;16.106;2022-11-06T17:18:16;21.10;40.90
67101;DHT22;54019;61.746;16.106;2022-11-06T17:20:45;21.20;40.50
67101;DHT22;54019;61.746;16.106;2022-11-06T17:23:11;21.30;39.80
67101;DHT22;54019;61.746;16.106;2022-11-06T17:25:37;21.40;39.20
67101;DHT22;54019;61.746;16.106;2022-11-06T17:28:03;21.50;39.10
67101;DHT22;54019;61.746;16.106;2022-11-06T17:30:29;21.60;38.60
67101;DHT22;54019;61.746;16.106;2022-11-06T17:32:56;21.70;37.80
67101;DHT22;54019;61.746;16.106;2022-11-06T17:35:22;21.70;37.30
67101;DHT22;54019;61.746;16.106;2022-11-06T17:37:47;21.70;36.90
67101;DHT22;54019;61.746;16.106;2022-11-06T17:40:13;21.70;36.40
67101;DHT22;54019;61.746;16.106;2022-11-06T17:42:39;21.80;36.20
67101;DHT22;54019;61.746;16.106;2022-11-06T17:45:05;21.80;36.10
67101;DHT22;54019;61.746;16.106;2022-11-06T17:47:31;21.80;36.10
67101;DHT22;54019;61.746;16.106;2022-11-06T17:49:58;21.80;36.10
67101;DHT22;54019;61.746;16.106;2022-11-06T17:52:24;21.80;36.20
67101;DHT22;54019;61.746;16.106;2022-11-06T17:54:50;21.90;37.20
67101;DHT22;54019;61.746;16.106;2022-11-06T17:57:16;21.90;36.30
67101;DHT22;54019;61.746;16.106;2022-11-06T17:59:42;21.90;35.90
67101;DHT22;54019;61.746;16.106;2022-11-06T18:02:10;21.90;36.10
67101;DHT22;54019;61.746;16.106;2022-11-06T18:04:36;21.90;35.90
67101;DHT22;54019;61.746;16.106;2022-11-06T18:07:04;21.90;35.90
67101;DHT22;54019;61.746;16.106;2022-11-06T18:09:29;21.80;35.80
67101;DHT22;54019;61.746;16.106;2022-11-06T18:11:55;21.80;36.50
67101;DHT22;54019;61.746;16.106;2022-11-06T18:14:23;21.80;35.80
67101;DHT22;54019;61.746;16.106;2022-11-06T18:16:49;21.80;35.70
67101;DHT22;54019;61.746;16.106;2022-11-06T18:19:17;21.90;35.70
67101;DHT22;54019;61.746;16.106;2022-11-06T18:21:43;21.90;35.40
67101;DHT22;54019;61.746;16.106;2022-11-06T18:24:10;22.00;35.20
67101;DHT22;54019;61.746;16.106;2022-11-06T18:26:36;21.90;35.20
67101;DHT22;54019;61.746;16.106;2022-11-06T18:29:02;21.80;35.20
67101;DHT22;54019;61.746;16.106;2022-11-06T18:31:28;21.80;35.40
67101;DHT22;54019;61.746;16.106;2022-11-06T18:33:54;21.70;35.60
67101;DHT22;54019;61.746;16.106;2022-11-06T18:36:19;21.70;35.80
67101;DHT22;54019;61.746;16.106;2022-11-06T18:38:45;21.70;35.90
67101;DHT22;54019;61.746;16.106;2022-11-06T18:41:14;21.60;35.80
67101;DHT22;54019;61.746;16.106;2022-11-06T18:43:40;21.60;35.90
67101;DHT22;54019;61.746;16.106;2022-11-06T18:46:08;21.50;35.80
67101;DHT22;54019;61.746;16.106;2022-11-06T18:48:34;21.50;35.80
67101;DHT22;54019;61.746;16.106;2022-11-06T18:51:04;21.50;35.90
67101;DHT22;54019;61.746;16.106;2022-11-06T18:53:30;21.40;35.80
67101;DHT22;54019;61.746;16.106;2022-11-06T18:55:56;21.40;35.90
67101;DHT22;54019;61.746;16.106;2022-11-06T18:58:24;21.40;36.00
67101;DHT22;54019;61.746;16.106;2022-11-06T19:00:49;21.40;36.10
67101;DHT22;54019;61.746;16.106;2022-11-06T19:03:15;21.30;36.10
67101;DHT22;54019;61.746;16.106;2022-11-06T19:05:46;21.30;36.10
67101;DHT22;54019;61.746;16.106;2022-11-06T19:08:12;21.40;37.30
67101;DHT22;54019;61.746;16.106;2022-11-06T19:10:38;21.40;36.40
67101;DHT22;54019;61.746;16.106;2022-11-06T19:13:04;21.40;36.40
67101;DHT22;54019;61.746;16.106;2022-11-06T19:15:31;21.30;36.20
67101;DHT22;54019;61.746;16.106;2022-11-06T19:17:57;21.20;36.20
67101;DHT22;54019;61.746;16.106;2022-11-06T19:20:22;21.30;36.40
67101;DHT22;54019;61.746;16.106;2022-11-06T19:22:49;21.20;36.20
67101;DHT22;54019;61.746;16.106;2022-11-06T19:25:15;21.30;36.20
67101;DHT22;54019;61.746;16.106;2022-11-06T19:27:41;21.20;36.10
67101;DHT22;54019;61.746;16.106;2022-11-06T19:30:07;21.20;36.10
67101;DHT22;54019;61.746;16.106;2022-11-06T19:32:35;21.20;36.20
67101;DHT22;54019;61.746;16.106;2022-11-06T19:35:00;21.20;36.30
67101;DHT22;54019;61.746;16.106;2022-11-06T19:37:26;21.20;36.40
67101;DHT22;54019;61.746;16.106;2022-11-06T19:39:52;21.20;36.20
67101;DHT22;54019;61.746;16.106;2022-11-06T19:42:18;21.10;36.40
67101;DHT22;54019;61.746;16.106;2022-11-06T19:44:44;21.10;36.60
67101;DHT22;54019;61.746;16.106;2022-11-06T19:47:09;21.10;36.40
67101;DHT22;54019;61.746;16.106;2022-11-06T19:49:38;21.10;36.50
67101;DHT22;54019;61.746;16.106;2022-11-06T19:52:04;21.10;36.60
67101;DHT22;54019;61.746;16.106;2022-11-06T19:54:29;21.10;36.50
67101;DHT22;54019;61.746;16.106;2022-11-06T19:56:55;21.00;36.30
67101;DHT22;54019;61.746;16.106;2022-11-06T19:59:21;21.00;36.30
67101;DHT22;54019;61.746;16.106;2022-11-06T20:01:48;21.00;36.30
67101;DHT22;54019;61.746;16.106;2022-11-06T20:04:13;21.00;36.30
67101;DHT22;54019;61.746;16.106;2022-11-06T20:06:41;21.00;36.30
67101;DHT22;54019;61.746;16.106;2022-11-06T20:09:10;21.00;36.40
67101;DHT22;54019;61.746;16.106;2022-11-06T20:11:35;21.00;36.30
67101;DHT22;54019;61.746;16.106;2022-11-06T20:14:01;20.90;36.30
67101;DHT22;54019;61.746;16.106;2022-11-06T20:16:27;20.90;36.00
67101;DHT22;54019;61.746;16.106;2022-11-06T20:18:54;20.90;36.10
67101;DHT22;54019;61.746;16.106;2022-11-06T20:21:21;20.90;35.90
67101;DHT22;54019;61.746;16.106;2022-11-06T20:23:49;20.80;35.80
67101;DHT22;54019;61.746;16.106;2022-11-06T20:26:15;20.80;35.80